Forside
METAR-TAF:

METAR-TAF

Lufthavne :

Ford Airport

Iron Mountain / Kingsford, Michigan, USA

Breddekreds: 45-48-51N, længdekreds: 088-06-32W, højde: 360 m

Aktuelle vejr

Denne rapport blev lavet for 34 minutter siden, kl. 17:54 UTC
Vind 9 kt fra vestsydvest med vindstød på up til 19 kt
Temperatur 8°C
Fugtighed 42%
Tryk 1004 hPa
Sigt: 16.1 km
skyfri

METAR: KIMT 231754Z AUTO 25009G19KT 10SM CLR 08/M04 A2965 RMK AO2 SLP054 I6000 T00781044 10078 21094 58012 $

Tid: 13:28 (18:28 UTC)


TAF: fraværende

Vejrobservationer og prognoser fra mere end 4000 lufthavne (METAR og TAF).

De gule og røde prikker repræsenterer de meteorologiske stationer.

Flyt musen over at se navnet på stationen.

Så klik over at se vejr observationer og prognoser.

At skifte det kort: Klik på de grønne knapper med et sort kors for at zoome ind; på den grønne knap med en bindestreg for at zoome ud; eller på de grønne pile for tilstødende kort.


METAR-TAF: